Time;durP1;ratioP1;P1;durP2;ratioP2;P2;SDS_P1;SDS_P2;PMS_P1;PMS_P2;Temp;Humidity;BMP_temperature;BMP_pressure;BME280_temperature;BME280_humidity;BME280_pressure;Samples;Min_cycle;Max_cycle;Signal;HPM_P1;HPM_P2
2022/01/29 00:01:10;;;;;;;39.13;18.13;;;7.20;99.90;;;;;;5074635;28;20041;-71
2022/01/29 00:03:36;;;;;;;34.78;18.67;;;7.20;99.90;;;;;;5073218;28;20049;-70
2022/01/29 00:06:03;;;;;;;36.67;17.70;;;7.30;99.90;;;;;;5074315;28;20036;-71
2022/01/29 00:08:28;;;;;;;37.92;18.73;;;7.40;99.90;;;;;;5074638;28;20461;-70
2022/01/29 00:11:00;;;;;;;40.33;18.40;;;7.30;99.90;;;;;;5074656;28;20047;-71
2022/01/29 00:13:26;;;;;;;38.13;18.42;;;7.40;99.90;;;;;;5074589;28;20045;-70
2022/01/29 00:15:52;;;;;;;42.58;18.25;;;7.30;99.90;;;;;;5073212;28;20366;-70
2022/01/29 00:18:17;;;;;;;34.88;17.95;;;7.20;99.90;;;;;;5074232;28;20048;-70
2022/01/29 00:20:43;;;;;;;36.30;18.67;;;7.30;99.90;;;;;;5074803;28;20039;-70
2022/01/29 00:23:09;;;;;;;36.53;18.83;;;7.30;99.90;;;;;;5073049;28;20117;-70
2022/01/29 00:25:34;;;;;;;36.72;18.00;;;7.30;99.90;;;;;;5073665;28;20489;-71
2022/01/29 00:28:00;;;;;;;44.40;18.25;;;7.30;99.90;;;;;;5073920;28;20037;-70
2022/01/29 00:30:32;;;;;;;36.25;18.88;;;7.30;99.90;;;;;;5074067;28;20036;-71
2022/01/29 00:32:57;;;;;;;35.17;18.80;;;7.30;99.90;;;;;;5073254;28;20541;-71
2022/01/29 00:35:23;;;;;;;31.70;18.65;;;7.40;99.90;;;;;;5073714;28;20040;-70
2022/01/29 00:37:49;;;;;;;38.83;20.08;;;7.30;99.90;;;;;;5073803;28;20372;-70
2022/01/29 00:40:14;;;;;;;43.70;20.45;;;7.30;99.90;;;;;;5073905;28;20153;-70
2022/01/29 00:42:40;;;;;;;45.60;21.15;;;7.30;99.90;;;;;;5074232;28;20393;-71
2022/01/29 00:45:06;;;;;;;36.75;20.15;;;7.30;99.90;;;;;;5073851;28;20044;-70
2022/01/29 00:47:32;;;;;;;33.95;20.65;;;7.30;99.90;;;;;;5073881;28;20036;-70
2022/01/29 00:49:58;;;;;;;39.78;21.33;;;7.40;99.90;;;;;;5074258;28;20049;-71
2022/01/29 00:52:24;;;;;;;38.53;21.98;;;7.30;99.90;;;;;;5074085;28;20041;-70
2022/01/29 00:54:50;;;;;;;38.13;21.90;;;7.30;99.90;;;;;;5073654;28;20033;-71
2022/01/29 00:57:16;;;;;;;36.05;20.50;;;7.30;99.90;;;;;;5072636;28;20523;-70
2022/01/29 00:59:42;;;;;;;40.30;22.52;;;7.30;99.90;;;;;;5073813;28;20443;-70
2022/01/29 01:02:09;;;;;;;43.25;21.48;;;7.30;99.90;;;;;;5073505;28;20090;-71
2022/01/29 01:04:38;;;;;;;35.70;21.23;;;7.30;99.90;;;;;;5072848;28;20044;-70
2022/01/29 01:07:05;;;;;;;32.67;19.95;;;7.30;99.90;;;;;;5073376;28;20044;-70
2022/01/29 01:09:31;;;;;;;36.45;21.73;;;7.30;99.90;;;;;;5072533;28;20446;-70
2022/01/29 01:11:56;;;;;;;36.75;21.05;;;7.30;99.90;;;;;;5074937;28;20043;-71
2022/01/29 01:14:22;;;;;;;42.72;20.92;;;7.40;99.90;;;;;;5074325;28;20033;-71
2022/01/29 01:16:48;;;;;;;38.83;21.23;;;7.30;99.90;;;;;;5072533;28;20041;-71
2022/01/29 01:19:13;;;;;;;39.72;21.98;;;7.40;99.90;;;;;;5075199;28;20072;-70
2022/01/29 01:21:39;;;;;;;35.78;21.60;;;7.30;99.90;;;;;;5073517;28;20392;-71
2022/01/29 01:24:05;;;;;;;36.97;21.65;;;7.40;99.90;;;;;;5072121;28;20051;-71
2022/01/29 01:26:30;;;;;;;37.95;21.52;;;7.30;99.90;;;;;;5073043;28;20452;-70
2022/01/29 01:28:56;;;;;;;51.15;25.02;;;7.40;99.90;;;;;;5073458;28;20082;-70
2022/01/29 01:31:22;;;;;;;45.53;23.05;;;7.40;99.90;;;;;;5072455;28;20044;-70
2022/01/29 01:33:48;;;;;;;44.60;22.30;;;7.50;99.90;;;;;;5072974;28;20449;-70
2022/01/29 01:36:17;;;;;;;40.55;22.67;;;7.50;99.90;;;;;;5071713;28;20041;-70
2022/01/29 01:38:49;;;;;;;44.28;23.48;;;7.50;99.90;;;;;;5073087;28;20502;-71
2022/01/29 01:41:20;;;;;;;44.42;24.80;;;7.50;99.90;;;;;;5074075;28;20036;-70
2022/01/29 01:43:45;;;;;;;41.08;23.90;;;7.50;99.90;;;;;;5077815;28;20041;-70
2022/01/29 01:46:11;;;;;;;46.05;23.75;;;7.50;99.90;;;;;;5076665;28;20043;-70
2022/01/29 01:48:37;;;;;;;45.33;22.83;;;7.50;99.90;;;;;;5058997;28;20040;-70
2022/01/29 01:51:02;;;;;;;40.72;23.65;;;7.50;99.90;;;;;;5077107;28;20045;-70
2022/01/29 01:53:28;;;;;;;48.28;24.38;;;7.60;99.90;;;;;;5076968;28;20045;-71
2022/01/29 01:55:54;;;;;;;43.08;23.58;;;7.60;99.90;;;;;;5076920;28;20029;-71
2022/01/29 01:58:19;;;;;;;49.33;24.13;;;7.60;99.90;;;;;;5076394;28;20493;-70
2022/01/29 02:00:45;;;;;;;48.42;24.73;;;7.60;99.90;;;;;;5076976;28;20039;-70
2022/01/29 02:03:11;;;;;;;58.47;26.27;;;7.60;99.90;;;;;;5076885;28;20124;-70
2022/01/29 02:05:37;;;;;;;49.22;24.48;;;7.70;99.90;;;;;;5076781;28;20039;-70
2022/01/29 02:08:03;;;;;;;47.55;24.17;;;7.60;99.90;;;;;;5077039;28;20040;-71
2022/01/29 02:10:30;;;;;;;52.67;24.98;;;7.60;99.90;;;;;;5075422;28;20115;-70
2022/01/29 02:12:59;;;;;;;51.53;26.35;;;7.70;99.90;;;;;;5075507;28;20140;-70
2022/01/29 02:15:25;;;;;;;47.40;24.92;;;7.70;99.90;;;;;;5076301;28;20040;-70
2022/01/29 02:17:52;;;;;;;52.30;26.33;;;7.70;99.90;;;;;;5076281;28;20483;-70
2022/01/29 02:20:20;;;;;;;48.35;25.60;;;7.60;99.90;;;;;;5075431;28;20572;-71
2022/01/29 02:22:46;;;;;;;58.40;27.60;;;7.70;99.90;;;;;;5076376;28;20044;-70
2022/01/29 02:25:32;;;;;;;47.50;27.05;;;7.70;99.90;;;;;;5076540;28;20141;-70
2022/01/29 02:28:07;;;;;;;59.30;26.80;;;7.80;99.90;;;;;;5076777;28;20097;-70
2022/01/29 02:30:34;;;;;;;60.58;30.20;;;7.80;99.90;;;;;;5075173;28;20039;-70
2022/01/29 02:33:03;;;;;;;56.60;28.15;;;7.80;99.90;;;;;;5075224;28;20431;-70
2022/01/29 02:35:29;;;;;;;46.25;26.10;;;7.80;99.90;;;;;;5076698;28;20098;-71
2022/01/29 02:37:56;;;;;;;65.40;28.05;;;7.80;99.90;;;;;;5074464;28;20483;-70
2022/01/29 02:40:23;;;;;;;54.15;28.25;;;7.80;99.90;;;;;;5076176;28;20082;-70
2022/01/29 02:42:52;;;;;;;58.80;25.92;;;7.90;99.90;;;;;;5076232;28;20124;-71
2022/01/29 02:45:18;;;;;;;57.38;26.85;;;8.00;99.90;;;;;;5076873;28;20392;-70
2022/01/29 02:47:43;;;;;;;48.78;26.42;;;8.00;99.90;;;;;;5075827;28;20040;-70
2022/01/29 02:50:09;;;;;;;58.97;27.45;;;7.90;99.90;;;;;;5076505;28;20044;-70
2022/01/29 02:52:35;;;;;;;54.55;26.77;;;7.90;99.90;;;;;;5075625;28;20112;-70
2022/01/29 02:55:02;;;;;;;48.85;25.42;;;7.90;99.90;;;;;;5075730;28;20040;-70
2022/01/29 02:57:28;;;;;;;49.22;24.42;;;7.90;99.90;;;;;;5075404;28;20461;-70
2022/01/29 02:59:57;;;;;;;51.40;26.05;;;7.90;99.90;;;;;;5075919;28;20119;-70
2022/01/29 03:02:23;;;;;;;44.55;23.42;;;7.90;99.90;;;;;;5076262;28;20048;-71
2022/01/29 03:04:49;;;;;;;52.83;24.25;;;7.90;99.90;;;;;;5076077;28;20059;-70
2022/01/29 03:07:14;;;;;;;46.35;23.60;;;8.00;99.90;;;;;;5075431;28;20133;-70
2022/01/29 03:09:40;;;;;;;53.95;24.55;;;8.10;99.90;;;;;;5075556;28;20036;-70
2022/01/29 03:12:06;;;;;;;43.30;23.95;;;8.10;99.90;;;;;;5075666;28;20419;-70
2022/01/29 03:14:32;;;;;;;48.20;22.73;;;8.10;99.90;;;;;;5075607;28;20091;-70
2022/01/29 03:16:57;;;;;;;45.97;22.80;;;8.00;99.90;;;;;;5057296;28;20106;-70
2022/01/29 03:19:23;;;;;;;39.63;22.02;;;8.00;99.90;;;;;;5076101;28;20380;-71
2022/01/29 03:21:48;;;;;;;38.85;20.33;;;8.10;99.90;;;;;;5075913;28;20082;-70
2022/01/29 03:24:14;;;;;;;37.28;19.90;;;8.00;99.90;;;;;;5074863;28;20043;-70
2022/01/29 03:26:39;;;;;;;46.28;19.55;;;8.00;99.90;;;;;;5056878;28;20079;-70
2022/01/29 03:29:06;;;;;;;43.03;19.92;;;8.20;99.90;;;;;;5075369;28;20042;-70
2022/01/29 03:31:31;;;;;;;36.10;20.25;;;8.10;99.90;;;;;;5073905;28;20101;-70
2022/01/29 03:33:57;;;;;;;45.78;20.35;;;8.10;99.90;;;;;;5074279;28;20040;-70
2022/01/29 03:36:23;;;;;;;40.42;19.05;;;8.10;99.90;;;;;;5073666;28;20119;-70
2022/01/29 03:38:48;;;;;;;34.38;19.08;;;8.20;99.90;;;;;;5074894;28;20045;-71
2022/01/29 03:41:14;;;;;;;44.90;21.67;;;8.20;99.90;;;;;;5075250;28;20032;-71
2022/01/29 03:43:45;;;;;;;34.85;19.08;;;8.20;99.90;;;;;;5073796;28;20124;-71
2022/01/29 03:46:11;;;;;;;40.85;19.08;;;8.20;99.90;;;;;;5074918;28;20040;-71
2022/01/29 03:48:38;;;;;;;42.58;20.17;;;8.30;99.90;;;;;;5074937;28;20048;-71
2022/01/29 03:51:03;;;;;;;34.95;19.38;;;8.20;99.90;;;;;;5075379;28;20041;-71
2022/01/29 03:53:29;;;;;;;37.67;18.70;;;8.30;99.90;;;;;;5074930;28;20048;-71
2022/01/29 03:55:54;;;;;;;31.15;18.10;;;8.30;99.90;;;;;;5074481;28;20393;-71
2022/01/29 03:58:20;;;;;;;33.33;17.98;;;8.30;99.90;;;;;;5056969;28;20167;-71
2022/01/29 04:00:45;;;;;;;29.45;18.65;;;8.30;99.90;;;;;;5074934;28;20040;-71
2022/01/29 04:03:11;;;;;;;34.63;17.85;;;8.20;99.90;;;;;;5074865;28;20396;-71
2022/01/29 04:05:37;;;;;;;35.90;18.40;;;8.30;99.90;;;;;;5073767;28;20032;-70
2022/01/29 04:08:08;;;;;;;32.95;18.13;;;8.30;99.90;;;;;;5056646;28;20044;-70
2022/01/29 04:10:34;;;;;;;33.20;17.63;;;8.30;99.90;;;;;;5056699;28;20076;-70
2022/01/29 04:13:00;;;;;;;29.73;16.55;;;8.30;99.90;;;;;;5074247;28;20067;-70
2022/01/29 04:15:25;;;;;;;34.67;17.98;;;8.30;99.90;;;;;;5074368;28;20040;-70
2022/01/29 04:17:51;;;;;;;35.03;16.88;;;8.30;99.90;;;;;;5073340;28;20041;-71
2022/01/29 04:20:16;;;;;;;32.22;17.30;;;8.30;99.90;;;;;;5074304;28;20034;-71
2022/01/29 04:22:42;;;;;;;31.80;17.13;;;8.30;99.90;;;;;;5072794;28;20123;-70
2022/01/29 04:25:08;;;;;;;36.95;17.88;;;8.30;99.90;;;;;;5074223;28;20127;-71
2022/01/29 04:27:40;;;;;;;37.20;17.10;;;8.40;99.90;;;;;;5072626;28;20054;-70
2022/01/29 04:30:12;;;;;;;39.97;17.90;;;8.30;99.90;;;;;;5074020;28;20381;-70
2022/01/29 04:35:06;;;;;;;36.53;17.33;;;8.50;99.90;;;;;;5073826;28;20063;-70
2022/01/29 04:37:32;;;;;;;36.25;18.27;;;8.40;99.90;;;;;;5072560;28;20063;-71
2022/01/29 04:39:57;;;;;;;34.83;18.27;;;8.40;99.90;;;;;;5073844;28;20508;-71
2022/01/29 04:42:23;;;;;;;42.15;18.75;;;8.40;99.90;;;;;;5074189;28;20119;-70
2022/01/29 04:44:48;;;;;;;38.58;17.88;;;8.40;99.90;;;;;;5074477;28;20037;-70
2022/01/29 04:47:14;;;;;;;32.63;17.45;;;8.40;99.90;;;;;;5073421;28;20089;-70
2022/01/29 04:49:39;;;;;;;36.30;18.17;;;8.40;99.90;;;;;;5073709;28;20063;-71
2022/01/29 04:52:05;;;;;;;37.13;17.33;;;8.40;99.90;;;;;;5072907;28;20039;-71
2022/01/29 04:54:32;;;;;;;34.50;18.92;;;8.50;99.90;;;;;;5072244;28;20040;-71
2022/01/29 04:56:58;;;;;;;31.20;16.20;;;8.50;99.90;;;;;;5073249;28;20602;-71
2022/01/29 04:59:24;;;;;;;39.72;18.88;;;8.40;99.90;;;;;;5072810;28;20115;-70
2022/01/29 05:01:49;;;;;;;36.60;18.38;;;8.50;99.90;;;;;;5073663;28;20043;-71
2022/01/29 05:04:15;;;;;;;39.75;17.52;;;8.40;99.90;;;;;;5073478;28;20127;-70
2022/01/29 05:06:40;;;;;;;34.45;16.95;;;8.50;99.90;;;;;;5073262;28;20032;-71
2022/01/29 05:09:08;;;;;;;39.28;18.75;;;8.40;99.90;;;;;;5072351;28;20036;-71
2022/01/29 05:11:34;;;;;;;34.88;17.30;;;8.50;99.90;;;;;;5073875;28;20041;-71
2022/01/29 05:14:01;;;;;;;34.38;18.88;;;8.50;99.90;;;;;;5073441;28;20044;-70
2022/01/29 05:16:42;;;;;;;31.73;18.30;;;8.50;99.90;;;;;;5071854;28;20033;-71
2022/01/29 05:27:20;;;;;;;29.83;16.95;;;8.50;99.90;;;;;;5053032;28;20048;-71
2022/01/29 05:29:46;;;;;;;28.23;16.58;;;8.50;99.90;;;;;;5053388;28;20047;-70
2022/01/29 05:32:12;;;;;;;32.47;16.67;;;8.60;99.90;;;;;;5053046;28;20044;-71
2022/01/29 05:34:37;;;;;;;31.85;16.67;;;8.60;99.90;;;;;;5053264;28;20044;-71
2022/01/29 05:37:04;;;;;;;32.35;17.13;;;8.50;99.90;;;;;;5052874;28;20033;-70
2022/01/29 05:39:30;;;;;;;35.72;17.55;;;8.50;99.90;;;;;;5052068;28;20051;-71
2022/01/29 05:41:57;;;;;;;32.30;16.88;;;8.60;99.90;;;;;;5051870;28;20044;-70
2022/01/29 05:44:23;;;;;;;32.40;18.95;;;8.70;99.90;;;;;;5053029;28;20095;-71
2022/01/29 05:46:48;;;;;;;36.72;17.45;;;8.70;99.90;;;;;;5052753;28;20470;-70
2022/01/29 05:49:14;;;;;;;34.45;17.17;;;8.70;99.90;;;;;;5052812;28;20034;-70
2022/01/29 05:51:39;;;;;;;31.92;15.85;;;8.60;99.90;;;;;;5053616;28;20041;-71
2022/01/29 05:54:05;;;;;;;31.40;15.75;;;8.70;99.90;;;;;;5053023;28;20037;-70
2022/01/29 05:56:31;;;;;;;33.00;16.67;;;8.80;99.90;;;;;;5052898;28;20043;-70
2022/01/29 05:58:57;;;;;;;29.35;17.63;;;8.70;99.90;;;;;;5053005;28;20033;-71
2022/01/29 06:01:23;;;;;;;28.83;17.48;;;8.70;99.90;;;;;;5052848;28;20408;-71
2022/01/29 06:03:49;;;;;;;27.90;17.67;;;8.80;99.90;;;;;;5053292;28;20103;-71
2022/01/29 06:06:14;;;;;;;30.58;16.88;;;8.80;99.90;;;;;;5052845;28;20473;-71
2022/01/29 06:08:40;;;;;;;33.47;17.52;;;8.80;99.90;;;;;;5053405;28;20063;-71
2022/01/29 06:11:06;;;;;;;32.22;15.88;;;8.70;99.90;;;;;;5053056;28;20040;-71
2022/01/29 06:13:32;;;;;;;34.33;17.02;;;8.80;99.90;;;;;;5052880;28;20044;-70
2022/01/29 06:15:57;;;;;;;28.95;17.25;;;8.80;99.90;;;;;;5052453;28;20508;-70
2022/01/29 06:18:25;;;;;;;32.95;16.50;;;8.80;99.90;;;;;;5053171;28;20033;-70
2022/01/29 06:20:52;;;;;;;25.50;15.80;;;8.80;99.90;;;;;;5051541;28;20041;-71
2022/01/29 06:23:24;;;;;;;29.73;16.67;;;8.80;99.90;;;;;;5035500;28;20052;-70
2022/01/29 06:25:50;;;;;;;33.92;16.83;;;8.90;99.90;;;;;;5051440;28;20079;-70
2022/01/29 06:28:15;;;;;;;22.83;14.57;;;8.90;99.90;;;;;;5053915;28;20033;-71
2022/01/29 06:30:41;;;;;;;29.55;15.82;;;8.90;99.90;;;;;;5056639;28;20443;-70
2022/01/29 06:33:07;;;;;;;22.90;14.65;;;8.90;99.90;;;;;;5056525;28;20082;-70
2022/01/29 06:35:32;;;;;;;25.95;15.07;;;8.90;99.90;;;;;;5038611;28;20486;-71
2022/01/29 06:37:58;;;;;;;22.08;14.70;;;8.90;99.90;;;;;;5056295;28;20159;-70
2022/01/29 06:40:24;;;;;;;28.25;15.90;;;8.90;99.90;;;;;;5056091;28;20124;-70
2022/01/29 06:42:49;;;;;;;30.75;15.25;;;8.90;99.90;;;;;;5056410;28;20063;-71
2022/01/29 06:45:16;;;;;;;25.30;15.45;;;8.90;99.90;;;;;;5056101;28;20052;-70
2022/01/29 06:47:41;;;;;;;31.95;15.40;;;8.90;99.90;;;;;;5055702;28;20127;-70
2022/01/29 06:50:08;;;;;;;28.98;15.20;;;8.90;99.90;;;;;;5055956;28;20087;-70
2022/01/29 06:52:33;;;;;;;25.80;14.68;;;8.90;99.90;;;;;;5055043;28;20481;-70
2022/01/29 06:54:59;;;;;;;34.60;17.20;;;8.90;99.90;;;;;;5054508;28;20051;-71
2022/01/29 06:57:24;;;;;;;25.67;14.88;;;9.00;99.90;;;;;;5054138;28;20099;-70
2022/01/29 06:59:50;;;;;;;31.38;16.83;;;9.00;99.90;;;;;;5056341;28;20115;-70
2022/01/29 07:02:15;;;;;;;25.42;14.57;;;9.00;99.90;;;;;;5056341;28;20036;-71
2022/01/29 07:04:41;;;;;;;29.50;15.13;;;9.10;99.90;;;;;;5055665;28;20045;-71
2022/01/29 07:07:07;;;;;;;24.05;14.32;;;9.00;99.90;;;;;;5055397;28;20393;-71
2022/01/29 07:09:32;;;;;;;22.10;14.77;;;9.00;99.90;;;;;;5055485;28;20175;-70
2022/01/29 07:12:07;;;;;;;24.25;15.32;;;9.10;99.90;;;;;;5055815;28;20052;-71
2022/01/29 07:14:37;;;;;;;27.25;13.82;;;9.00;99.90;;;;;;5055996;28;20434;-71
2022/01/29 07:17:03;;;;;;;24.10;14.00;;;9.20;99.90;;;;;;5055141;28;20041;-71
2022/01/29 07:19:28;;;;;;;21.23;12.85;;;9.20;99.90;;;;;;5056193;28;20047;-70
2022/01/29 07:21:54;;;;;;;22.10;14.25;;;9.20;99.90;;;;;;5055598;28;20040;-70
2022/01/29 07:24:19;;;;;;;24.15;13.63;;;9.20;99.90;;;;;;5055645;28;20052;-71
2022/01/29 07:26:45;;;;;;;20.15;13.07;;;9.10;99.90;;;;;;5053700;28;20063;-70
2022/01/29 07:29:11;;;;;;;20.00;13.13;;;9.10;99.90;;;;;;5054306;28;20036;-70
2022/01/29 07:31:36;;;;;;;19.88;12.80;;;9.10;99.90;;;;;;5055143;28;20159;-71
2022/01/29 07:34:02;;;;;;;23.45;13.32;;;9.20;99.90;;;;;;5055670;28;20044;-70
2022/01/29 07:36:27;;;;;;;21.45;12.35;;;9.20;99.90;;;;;;5055211;28;20041;-70
2022/01/29 07:38:53;;;;;;;23.45;12.82;;;9.20;99.90;;;;;;5054465;28;20386;-71
2022/01/29 07:41:18;;;;;;;24.20;12.68;;;9.20;99.90;;;;;;5053389;28;20525;-71
2022/01/29 07:43:44;;;;;;;24.10;12.85;;;9.20;99.90;;;;;;5055347;28;20063;-71
2022/01/29 07:46:09;;;;;;;26.65;13.25;;;9.20;99.90;;;;;;5053304;28;20048;-70
2022/01/29 07:48:35;;;;;;;30.48;12.93;;;9.30;99.90;;;;;;5054773;28;20028;-70
2022/01/29 07:51:01;;;;;;;26.80;13.40;;;9.20;99.90;;;;;;5054793;28;20033;-71
2022/01/29 07:53:26;;;;;;;17.55;11.70;;;9.20;99.90;;;;;;5053388;28;20071;-71
2022/01/29 07:55:52;;;;;;;23.20;13.23;;;9.30;99.90;;;;;;5053273;28;20051;-71
2022/01/29 07:58:17;;;;;;;23.55;12.50;;;9.20;99.90;;;;;;5055087;28;20052;-71
2022/01/29 08:00:43;;;;;;;27.98;12.57;;;9.20;99.90;;;;;;5055140;28;20116;-71
2022/01/29 08:03:08;;;;;;;24.90;13.65;;;9.20;99.90;;;;;;5055224;28;20041;-70
2022/01/29 08:05:35;;;;;;;25.80;13.02;;;9.10;99.90;;;;;;5054373;28;20048;-70
2022/01/29 08:08:01;;;;;;;22.05;13.18;;;9.10;99.90;;;;;;5053349;28;20452;-71
2022/01/29 08:10:26;;;;;;;24.95;14.15;;;9.10;99.90;;;;;;5054526;28;20116;-71
2022/01/29 08:12:52;;;;;;;25.92;13.15;;;9.10;99.90;;;;;;5053340;28;20068;-71
2022/01/29 08:15:17;;;;;;;27.38;13.98;;;9.10;99.90;;;;;;5054144;28;20492;-71
2022/01/29 08:17:43;;;;;;;23.95;13.77;;;9.10;99.90;;;;;;5053830;28;20116;-71
2022/01/29 08:20:09;;;;;;;25.40;14.02;;;9.00;99.90;;;;;;5053523;28;20083;-70
2022/01/29 08:22:34;;;;;;;22.88;13.68;;;9.00;99.90;;;;;;5054065;28;20090;-71
2022/01/29 08:25:02;;;;;;;25.88;13.15;;;9.00;99.90;;;;;;5054065;28;20077;-70
2022/01/29 08:27:27;;;;;;;28.95;13.93;;;9.00;99.90;;;;;;5052804;28;20393;-71
2022/01/29 08:29:53;;;;;;;21.17;12.40;;;9.00;99.90;;;;;;5054187;28;20041;-71
2022/01/29 08:32:18;;;;;;;27.17;12.75;;;9.00;99.90;;;;;;5054656;28;20052;-71
2022/01/29 08:34:46;;;;;;;25.42;12.85;;;8.90;99.90;;;;;;5052772;28;20045;-71
2022/01/29 08:37:12;;;;;;;25.25;12.75;;;9.00;99.90;;;;;;5053687;28;20044;-71
2022/01/29 08:39:38;;;;;;;22.95;11.65;;;9.00;99.90;;;;;;5053857;28;20412;-71
2022/01/29 08:42:04;;;;;;;28.92;13.10;;;9.00;99.90;;;;;;5054173;28;20125;-71
2022/01/29 08:44:29;;;;;;;25.02;12.18;;;9.00;99.90;;;;;;5052976;28;20040;-71
2022/01/29 08:46:55;;;;;;;23.25;12.15;;;9.10;99.90;;;;;;5052460;28;20053;-71
2022/01/29 08:49:21;;;;;;;26.92;12.30;;;9.20;99.90;;;;;;5052434;28;20451;-71
2022/01/29 08:51:47;;;;;;;21.55;11.52;;;9.10;99.90;;;;;;5053538;28;20033;-71
2022/01/29 08:54:13;;;;;;;26.85;12.23;;;9.20;99.90;;;;;;5053512;28;20033;-71
2022/01/29 08:56:38;;;;;;;19.27;10.95;;;9.20;99.90;;;;;;5053389;28;20082;-70
2022/01/29 08:59:04;;;;;;;21.15;11.43;;;9.30;99.90;;;;;;5054136;28;20484;-70
2022/01/29 09:01:30;;;;;;;21.60;10.73;;;9.30;99.90;;;;;;5053509;28;20477;-70
2022/01/29 09:03:56;;;;;;;21.25;10.43;;;9.20;99.90;;;;;;5052267;28;20084;-70
2022/01/29 09:06:21;;;;;;;18.52;9.77;;;9.20;99.90;;;;;;5053284;28;20406;-70
2022/01/29 09:08:50;;;;;;;16.73;8.90;;;9.20;99.90;;;;;;5052353;28;20039;-70
2022/01/29 09:11:17;;;;;;;16.90;9.45;;;9.30;99.90;;;;;;5052535;28;20045;-70
2022/01/29 09:13:43;;;;;;;14.23;8.32;;;9.40;99.90;;;;;;5053441;28;20099;-70
2022/01/29 09:16:08;;;;;;;19.08;8.70;;;9.40;99.90;;;;;;5052888;28;20404;-70
2022/01/29 09:18:34;;;;;;;12.52;9.00;;;9.50;99.90;;;;;;5053760;28;20044;-70
2022/01/29 09:21:00;;;;;;;17.45;8.25;;;9.50;99.90;;;;;;5052041;28;20059;-70
2022/01/29 09:23:25;;;;;;;14.50;7.05;;;9.40;99.90;;;;;;5053388;28;20031;-70
2022/01/29 09:25:51;;;;;;;14.55;8.23;;;9.40;99.90;;;;;;5053012;28;20500;-70
2022/01/29 09:28:17;;;;;;;19.80;7.72;;;9.40;99.90;;;;;;5052471;28;20048;-70
2022/01/29 09:30:44;;;;;;;13.45;7.13;;;9.40;99.90;;;;;;5053332;28;20033;-70
2022/01/29 09:33:11;;;;;;;12.35;6.55;;;9.60;99.90;;;;;;5052006;28;20060;-70
2022/01/29 09:35:38;;;;;;;18.70;7.20;;;9.60;99.90;;;;;;5053021;28;20033;-70
2022/01/29 09:38:07;;;;;;;11.05;6.35;;;9.50;99.90;;;;;;5052985;28;20052;-70
2022/01/29 09:40:33;;;;;;;13.00;6.63;;;9.60;99.90;;;;;;5052208;28;20123;-70
2022/01/29 09:43:01;;;;;;;11.60;6.55;;;9.60;99.90;;;;;;5051771;28;20045;-70
2022/01/29 09:45:27;;;;;;;14.73;7.32;;;9.60;99.90;;;;;;5078494;28;20042;-71
2022/01/29 09:48:01;;;;;;;9.05;6.25;;;9.60;99.90;;;;;;5077326;28;20119;-70
2022/01/29 09:50:29;;;;;;;13.15;6.25;;;9.70;99.90;;;;;;5073219;28;20040;-70
2022/01/29 09:52:54;;;;;;;15.82;5.82;;;9.70;99.90;;;;;;5073461;28;20051;-71
2022/01/29 09:55:20;;;;;;;12.07;6.00;;;9.80;99.90;;;;;;5073506;28;20037;-73
2022/01/29 09:57:46;;;;;;;15.23;5.80;;;9.80;99.90;;;;;;5072989;28;20493;-70
2022/01/29 10:00:12;;;;;;;11.73;5.30;;;9.80;99.90;;;;;;5073200;28;20043;-70
2022/01/29 10:02:38;;;;;;;13.80;5.97;;;9.90;99.90;;;;;;5074660;28;20350;-71
2022/01/29 10:05:05;;;;;;;12.23;5.68;;;9.90;99.90;;;;;;5094240;28;20119;-70
2022/01/29 10:07:31;;;;;;;11.98;5.65;;;9.80;99.90;;;;;;5088430;28;20045;-70
2022/01/29 10:09:59;;;;;;;10.85;5.47;;;9.80;99.90;;;;;;5076096;28;20507;-71
2022/01/29 10:12:30;;;;;;;10.88;5.25;;;9.90;99.90;;;;;;5085489;28;20036;-71
2022/01/29 10:15:01;;;;;;;12.48;5.10;;;9.90;99.90;;;;;;5087500;28;20043;-71
2022/01/29 10:17:41;;;;;;;10.40;5.47;;;10.00;99.90;;;;;;5077927;28;20041;-70
2022/01/29 10:20:12;;;;;;;14.52;5.40;;;10.00;99.90;;;;;;5059163;28;20040;-70
2022/01/29 10:22:38;;;;;;;11.50;4.72;;;10.00;99.90;;;;;;5088603;28;20504;-70
2022/01/29 10:25:09;;;;;;;12.25;4.55;;;10.00;99.90;;;;;;5097022;28;20069;-70
2022/01/29 10:27:35;;;;;;;16.52;4.30;;;10.10;99.90;;;;;;5095007;28;20040;-70
2022/01/29 10:30:03;;;;;;;9.45;4.40;;;10.00;99.90;;;;;;5095350;28;20047;-70
2022/01/29 10:32:29;;;;;;;12.05;4.13;;;10.10;99.90;;;;;;5096990;28;20043;-70
2022/01/29 10:34:56;;;;;;;11.25;4.57;;;10.10;99.90;;;;;;5095367;28;20403;-70
2022/01/29 10:37:23;;;;;;;10.18;4.20;;;10.20;99.90;;;;;;5091552;28;20553;-70
2022/01/29 10:39:55;;;;;;;8.32;3.53;;;10.20;99.90;;;;;;5092142;28;20044;-70
2022/01/29 10:42:26;;;;;;;7.97;4.00;;;10.20;99.90;;;;;;5082370;28;20072;-70
2022/01/29 10:44:55;;;;;;;9.30;3.72;;;10.20;99.90;;;;;;5084639;28;20039;-70
2022/01/29 10:47:21;;;;;;;11.50;3.83;;;10.20;99.90;;;;;;5084712;28;20081;-69
2022/01/29 10:49:51;;;;;;;12.73;3.83;;;10.30;99.90;;;;;;5081253;28;20448;-68
2022/01/29 10:52:18;;;;;;;9.10;3.30;;;10.30;99.90;;;;;;5075877;28;20499;-68
2022/01/29 10:54:47;;;;;;;11.13;3.38;;;10.30;99.90;;;;;;5075835;28;20082;-68
2022/01/29 10:57:17;;;;;;;8.13;2.80;;;10.30;99.90;;;;;;5074150;28;20081;-72
2022/01/29 10:59:51;;;;;;;7.78;3.45;;;10.40;99.90;;;;;;5074634;28;20044;-72
2022/01/29 11:02:19;;;;;;;11.48;3.10;;;10.40;99.90;;;;;;5075727;28;20116;-71
2022/01/29 11:04:46;;;;;;;7.93;3.45;;;10.30;99.90;;;;;;5075688;28;20128;-71
2022/01/29 11:07:19;;;;;;;8.23;3.38;;;10.40;99.90;;;;;;5075291;28;20051;-71
2022/01/29 11:09:50;;;;;;;9.88;2.70;;;10.40;99.90;;;;;;5075698;28;20531;-71
2022/01/29 11:12:22;;;;;;;7.97;2.92;;;10.30;99.90;;;;;;5074760;28;20472;-71
2022/01/29 11:14:49;;;;;;;18.27;2.90;;;10.30;99.90;;;;;;5073986;28;20044;-71
2022/01/29 11:17:18;;;;;;;6.50;2.90;;;10.30;99.90;;;;;;5073793;28;20036;-71
2022/01/29 11:19:44;;;;;;;8.52;2.90;;;10.40;99.90;;;;;;5075420;28;20107;-71
2022/01/29 11:22:10;;;;;;;8.23;3.10;;;10.40;99.90;;;;;;5075308;28;20033;-71
2022/01/29 11:24:37;;;;;;;7.50;3.25;;;10.40;99.90;;;;;;5075777;28;20123;-71
2022/01/29 11:27:28;;;;;;;8.75;2.80;;;10.40;99.90;;;;;;5075174;28;20116;-71
2022/01/29 11:30:01;;;;;;;7.82;3.70;;;10.50;99.90;;;;;;5075767;28;20044;-71
2022/01/29 11:32:28;;;;;;;;;;;10.60;99.90;;;;;;5074719;28;20040;-71
2022/01/29 11:35:00;;;;;;;10.43;2.83;;;10.50;99.90;;;;;;5075108;28;20372;-71
2022/01/29 11:37:51;;;;;;;15.13;3.33;;;10.50;99.90;;;;;;5073501;28;20048;-70
2022/01/29 11:40:28;;;;;;;8.65;2.38;;;10.50;99.90;;;;;;5073703;28;20036;-71
2022/01/29 11:43:21;;;;;;;8.00;2.47;;;10.60;99.90;;;;;;5074993;28;20370;-71
2022/01/29 11:46:10;;;;;;;12.82;2.88;;;10.50;99.90;;;;;;5074777;28;20119;-71
2022/01/29 11:51:43;;;;;;;8.15;2.92;;;10.50;99.90;;;;;;5074810;28;20515;-71
2022/01/29 11:54:14;;;;;;;5.70;2.55;;;10.60;99.90;;;;;;5073428;28;20437;-71
2022/01/29 11:56:41;;;;;;;11.63;2.40;;;10.60;99.90;;;;;;5073652;28;20063;-71
2022/01/29 11:59:19;;;;;;;12.02;2.78;;;10.60;99.90;;;;;;5074654;28;20503;-71
2022/01/29 12:01:53;;;;;;;8.48;2.25;;;10.70;99.90;;;;;;5075506;28;20036;-75
2022/01/29 12:04:20;;;;;;;6.35;2.90;;;10.80;99.90;;;;;;5057154;28;20521;-75
2022/01/29 12:07:10;;;;;;;10.35;3.15;;;11.00;99.90;;;;;;5085866;28;20021;-76
2022/01/29 12:09:53;;;;;;;9.75;2.50;;;11.00;99.90;;;;;;5074968;28;20550;-75
2022/01/29 12:12:28;;;;;;;4.28;2.30;;;11.00;99.90;;;;;;5053789;28;20206;-76
2022/01/29 12:14:56;;;;;;;11.52;2.50;;;11.00;99.90;;;;;;5054806;28;20112;-76
2022/01/29 12:17:42;;;;;;;5.00;2.17;;;11.00;99.90;;;;;;5053955;28;20504;-75
2022/01/29 12:20:13;;;;;;;9.23;2.40;;;11.00;99.90;;;;;;5053254;28;20048;-75
2022/01/29 12:22:41;;;;;;;10.70;2.70;;;11.00;99.90;;;;;;5053320;28;20052;-75
2022/01/29 12:25:10;;;;;;;6.30;2.20;;;11.10;99.90;;;;;;5054704;28;20040;-75
2022/01/29 12:27:49;;;;;;;6.65;1.90;;;11.10;99.90;;;;;;5069263;28;20045;-74
2022/01/29 12:30:19;;;;;;;8.35;2.00;;;11.20;99.90;;;;;;5055132;28;20033;-74
2022/01/29 12:33:00;;;;;;;5.13;1.70;;;11.20;99.90;;;;;;5054189;28;20080;-75
2022/01/29 12:35:32;;;;;;;7.80;1.63;;;11.20;99.90;;;;;;5053749;28;20401;-76
2022/01/29 12:37:58;;;;;;;6.90;3.75;;;11.30;99.90;;;;;;5053921;28;20060;-75
2022/01/29 12:40:25;;;;;;;7.10;2.20;;;11.40;99.90;;;;;;5053873;28;20044;-75
2022/01/29 12:42:59;;;;;;;9.80;2.80;;;11.40;99.90;;;;;;5054249;28;20064;-75
2022/01/29 12:45:25;;;;;;;;;;;11.40;99.90;;;;;;5053915;28;20370;-76
2022/01/29 12:48:06;;;;;;;4.45;1.60;;;11.30;99.90;;;;;;5035916;28;20273;-76
2022/01/29 12:50:31;;;;;;;7.43;2.17;;;11.40;99.90;;;;;;5054044;28;20123;-75
2022/01/29 12:53:08;;;;;;;6.32;1.65;;;11.40;99.90;;;;;;5054668;28;20068;-75
2022/01/29 12:55:34;;;;;;;10.32;1.83;;;11.40;99.90;;;;;;5054039;28;20519;-74